createdAt,value
2022-12-17T00:00:46.767Z,100613.00
2022-12-17T00:03:36.034Z,100612.34
2022-12-17T00:06:24.967Z,100623.56
2022-12-17T00:09:10.669Z,100620.16
2022-12-17T00:11:58.031Z,100621.13
2022-12-17T00:14:44.082Z,100622.09
2022-12-17T00:17:32.404Z,100624.06
2022-12-17T00:20:19.019Z,100620.72
2022-12-17T00:23:06.056Z,100624.97
2022-12-17T00:25:51.766Z,100620.69
2022-12-17T00:28:39.274Z,100625.81
2022-12-17T00:31:25.453Z,100632.31
2022-12-17T00:34:11.052Z,100639.47
2022-12-17T00:36:57.906Z,100641.78
2022-12-17T00:39:59.128Z,100640.06
2022-12-17T00:42:57.942Z,100646.81
2022-12-17T00:48:49.499Z,100659.31
2022-12-17T00:54:37.988Z,100659.34
2022-12-17T00:57:23.443Z,100660.25
2022-12-17T01:00:12.693Z,100661.22
2022-12-17T01:03:00.230Z,100662.88
2022-12-17T01:05:52.462Z,100657.88
2022-12-17T01:08:38.769Z,100668.06
2022-12-17T01:11:25.665Z,100675.78
2022-12-17T01:14:11.148Z,100674.06
2022-12-17T01:16:57.646Z,100668.28
2022-12-17T01:19:44.889Z,100667.78
2022-12-17T01:22:45.134Z,100678.00
2022-12-17T01:25:31.250Z,100683.72
2022-12-17T01:28:17.577Z,100680.28
2022-12-17T01:31:03.218Z,100684.47
2022-12-17T01:33:52.967Z,100692.81
2022-12-17T01:36:40.597Z,100697.59
2022-12-17T01:39:38.546Z,100696.41
2022-12-17T01:42:24.317Z,100699.78
2022-12-17T01:45:14.615Z,100704.09
2022-12-17T01:48:03.467Z,100711.75
2022-12-17T01:50:51.876Z,100714.28
2022-12-17T01:53:56.505Z,100714.81
2022-12-17T01:56:44.502Z,100728.97
2022-12-17T01:59:47.493Z,100725.44
2022-12-17T02:02:33.182Z,100724.25
2022-12-17T02:05:19.079Z,100730.81
2022-12-17T02:08:08.452Z,100724.28
2022-12-17T02:11:05.012Z,100731.75
2022-12-17T02:13:53.039Z,100735.34
2022-12-17T02:16:40.761Z,100735.47
2022-12-17T02:19:41.529Z,100732.28
2022-12-17T02:22:33.511Z,100736.69
2022-12-17T02:25:24.741Z,100727.66
2022-12-17T02:28:24.850Z,100730.22
2022-12-17T02:31:26.310Z,100731.66
2022-12-17T02:34:12.264Z,100736.44
2022-12-17T02:36:57.668Z,100738.53
2022-12-17T02:39:43.235Z,100735.28
2022-12-17T02:42:28.860Z,100736.63
2022-12-17T02:45:16.676Z,100750.25
2022-12-17T02:48:03.373Z,100750.09
2022-12-17T02:50:48.910Z,100740.06
2022-12-17T02:53:35.418Z,100752.19
2022-12-17T02:56:21.252Z,100752.88
2022-12-17T02:59:09.934Z,100757.81
2022-12-17T03:02:00.970Z,100767.88
2022-12-17T03:04:50.166Z,100757.16
2022-12-17T03:08:00.697Z,100763.31
2022-12-17T03:10:46.174Z,100764.53
2022-12-17T03:13:41.031Z,100768.16
2022-12-17T03:16:30.348Z,100763.91
2022-12-17T03:19:21.122Z,100766.75
2022-12-17T03:22:07.009Z,100758.69
2022-12-17T03:24:52.529Z,100763.78
2022-12-17T03:27:39.798Z,100768.06
2022-12-17T03:30:26.427Z,100774.25
2022-12-17T03:33:16.834Z,100775.16
2022-12-17T03:36:03.727Z,100780.38
2022-12-17T03:38:48.875Z,100776.13
2022-12-17T03:41:34.494Z,100776.69
2022-12-17T03:44:20.115Z,100780.31
2022-12-17T03:47:05.304Z,100781.09
2022-12-17T03:49:50.644Z,100792.13
2022-12-17T03:52:37.736Z,100791.25
2022-12-17T03:55:23.828Z,100790.91
2022-12-17T03:58:09.028Z,100790.19
2022-12-17T04:00:54.411Z,100792.66
2022-12-17T04:03:40.332Z,100791.00
2022-12-17T04:06:26.255Z,100783.56
2022-12-17T04:09:13.995Z,100789.34
2022-12-17T04:11:59.645Z,100788.34
2022-12-17T04:14:45.693Z,100790.72
2022-12-17T04:17:31.171Z,100795.16
2022-12-17T04:20:16.403Z,100806.28
2022-12-17T04:23:01.994Z,100812.06
2022-12-17T04:25:49.150Z,100812.91
2022-12-17T04:28:33.706Z,100816.28
2022-12-17T04:31:22.990Z,100804.75
2022-12-17T04:34:08.753Z,100810.59
2022-12-17T04:36:54.415Z,100819.91
2022-12-17T04:39:40.184Z,100822.13
2022-12-17T04:42:27.700Z,100819.47
2022-12-17T04:45:13.097Z,100822.53
2022-12-17T04:47:58.829Z,100826.75
2022-12-17T04:50:44.329Z,100834.28
2022-12-17T04:53:29.908Z,100836.16
2022-12-17T04:56:15.249Z,100833.50
2022-12-17T04:59:02.120Z,100833.66
2022-12-17T05:01:48.056Z,100842.19
2022-12-17T05:04:33.370Z,100832.31
2022-12-17T05:07:18.847Z,100839.66
2022-12-17T05:10:04.667Z,100843.31
2022-12-17T05:12:50.077Z,100837.31
2022-12-17T05:15:37.490Z,100841.44
2022-12-17T05:18:24.243Z,100843.09
2022-12-17T05:21:09.809Z,100856.09
2022-12-17T05:23:57.770Z,100857.09
2022-12-17T05:26:43.962Z,100864.75
2022-12-17T05:29:30.885Z,100868.94
2022-12-17T05:32:18.177Z,100868.13
2022-12-17T05:35:03.778Z,100869.81
2022-12-17T05:37:50.770Z,100869.41
2022-12-17T05:40:36.728Z,100876.75
2022-12-17T05:43:23.238Z,100885.63
2022-12-17T05:46:09.583Z,100885.00
2022-12-17T05:48:57.654Z,100886.50
2022-12-17T05:51:53.314Z,100882.91
2022-12-17T05:54:38.873Z,100892.88
2022-12-17T05:57:24.493Z,100887.13
2022-12-17T06:00:09.779Z,100888.56
2022-12-17T06:02:57.713Z,100897.75
2022-12-17T06:05:44.838Z,100893.94
2022-12-17T06:08:30.171Z,100903.75
2022-12-17T06:11:16.520Z,100913.25
2022-12-17T06:14:02.628Z,100911.50
2022-12-17T06:16:48.055Z,100921.03
2022-12-17T06:19:33.484Z,100925.78
2022-12-17T06:22:23.716Z,100923.72
2022-12-17T06:25:08.885Z,100921.97
2022-12-17T06:27:54.042Z,100938.44
2022-12-17T06:30:39.936Z,100937.97
2022-12-17T06:33:26.414Z,100947.63
2022-12-17T06:36:18.064Z,100942.22
2022-12-17T06:39:08.912Z,100945.06
2022-12-17T06:41:54.775Z,100954.28
2022-12-17T06:44:47.386Z,100956.59
2022-12-17T06:47:32.472Z,100952.91
2022-12-17T06:50:17.924Z,100958.25
2022-12-17T06:53:03.303Z,100965.03
2022-12-17T06:55:56.060Z,100976.75
2022-12-17T06:58:41.954Z,100970.47
2022-12-17T07:01:27.554Z,100977.09
2022-12-17T07:04:13.242Z,100983.66
2022-12-17T07:06:58.889Z,100988.06
2022-12-17T07:09:44.230Z,100990.34
2022-12-17T07:12:31.190Z,100992.88
2022-12-17T07:15:16.603Z,101004.06
2022-12-17T07:18:02.242Z,101012.50
2022-12-17T07:20:47.450Z,101015.19
2022-12-17T07:23:33.019Z,101020.69
2022-12-17T07:26:18.782Z,101026.06
2022-12-17T07:29:09.258Z,101025.34
2022-12-17T07:31:54.548Z,101039.78
2022-12-17T07:34:40.345Z,101048.09
2022-12-17T07:37:25.723Z,101045.63
2022-12-17T07:40:10.902Z,101049.94
2022-12-17T07:42:57.834Z,101054.50
2022-12-17T07:45:45.023Z,101060.00
2022-12-17T07:48:30.412Z,101068.63
2022-12-17T07:51:16.073Z,101069.28
2022-12-17T07:53:58.103Z,101063.56
2022-12-17T07:56:43.314Z,101072.16
2022-12-17T07:59:28.777Z,101075.56
2022-12-17T08:02:16.446Z,101073.72
2022-12-17T08:05:02.197Z,101073.34
2022-12-17T08:07:47.304Z,101072.13
2022-12-17T08:10:32.467Z,101076.53
2022-12-17T08:13:18.680Z,101078.03
2022-12-17T08:16:04.465Z,101080.56
2022-12-17T08:18:51.406Z,101098.28
2022-12-17T08:21:51.893Z,101105.66
2022-12-17T08:24:37.881Z,101095.84
2022-12-17T08:27:23.556Z,101102.25
2022-12-17T08:30:09.049Z,101110.34
2022-12-17T08:32:54.274Z,101106.72
2022-12-17T08:35:43.827Z,101109.78
2022-12-17T08:38:29.287Z,101108.59
2022-12-17T08:41:14.787Z,101105.69
2022-12-17T08:44:00.105Z,101100.53
2022-12-17T08:46:45.538Z,101107.63
2022-12-17T08:49:45.201Z,101112.75
2022-12-17T08:52:32.041Z,101127.22
2022-12-17T08:55:17.245Z,101125.84
2022-12-17T08:58:22.538Z,101127.38
2022-12-17T09:01:08.092Z,101136.66
2022-12-17T09:03:53.564Z,101130.44
2022-12-17T09:06:39.419Z,101134.22
2022-12-17T09:09:26.340Z,101131.88
2022-12-17T09:12:11.523Z,101143.56
2022-12-17T09:14:56.893Z,101147.00
2022-12-17T09:17:42.247Z,101148.16
2022-12-17T09:20:29.639Z,101153.09
2022-12-17T09:23:14.955Z,101146.00
2022-12-17T09:26:01.502Z,101156.53
2022-12-17T09:28:46.790Z,101150.38
2022-12-17T09:31:36.975Z,101152.94
2022-12-17T09:34:28.250Z,101149.66
2022-12-17T09:37:24.842Z,101150.38
2022-12-17T09:40:10.403Z,101155.53
2022-12-17T09:43:00.787Z,101157.31
2022-12-17T09:45:50.986Z,101159.53
2022-12-17T09:48:41.122Z,101160.50
2022-12-17T09:51:35.210Z,101152.59
2022-12-17T09:54:20.966Z,101163.59
2022-12-17T09:57:07.669Z,101164.97
2022-12-17T10:00:03.420Z,101163.97
2022-12-17T10:02:58.548Z,101170.19
2022-12-17T10:05:45.456Z,101163.41
2022-12-17T10:08:32.874Z,101169.94
2022-12-17T10:11:34.198Z,101169.78
2022-12-17T10:14:20.665Z,101165.28
2022-12-17T10:17:11.918Z,101158.25
2022-12-17T10:19:59.812Z,101164.31
2022-12-17T10:22:45.213Z,101166.31
2022-12-17T10:25:34.380Z,101164.25
2022-12-17T10:28:20.259Z,101175.75
2022-12-17T10:31:05.994Z,101175.25
2022-12-17T10:33:55.770Z,101169.69
2022-12-17T10:36:42.558Z,101171.53
2022-12-17T10:39:35.038Z,101186.41
2022-12-17T10:42:20.708Z,101185.31
2022-12-17T10:45:06.198Z,101183.28
2022-12-17T10:47:52.356Z,101180.91
2022-12-17T10:50:40.951Z,101177.47
2022-12-17T10:53:36.455Z,101180.03
2022-12-17T10:56:41.599Z,101175.94
2022-12-17T10:59:30.656Z,101181.03
2022-12-17T11:02:21.757Z,101185.88
2022-12-17T11:05:17.375Z,101181.00
2022-12-17T11:08:04.526Z,101173.31
2022-12-17T11:10:51.078Z,101185.03
2022-12-17T11:13:41.981Z,101186.31
2022-12-17T11:16:31.457Z,101197.28
2022-12-17T11:19:20.605Z,101193.66
2022-12-17T11:22:10.127Z,101193.25
2022-12-17T11:24:59.619Z,101187.47
2022-12-17T11:30:56.732Z,101196.34
2022-12-17T11:33:48.131Z,101198.06
2022-12-17T11:36:39.262Z,101204.00
2022-12-17T11:39:28.709Z,101203.09
2022-12-17T11:42:24.462Z,101208.25
2022-12-17T11:45:16.007Z,101206.47
2022-12-17T11:48:05.193Z,101204.00
2022-12-17T11:50:54.253Z,101199.72
2022-12-17T11:54:00.638Z,101206.53
2022-12-17T11:56:49.467Z,101204.81
2022-12-17T11:59:46.772Z,101209.00
2022-12-17T12:02:48.001Z,101210.78
2022-12-17T12:05:38.703Z,101212.31
2022-12-17T12:08:28.093Z,101223.25
2022-12-17T12:11:16.863Z,101225.94
2022-12-17T12:14:06.584Z,101216.47
2022-12-17T12:16:57.790Z,101210.22
2022-12-17T12:19:45.685Z,101209.97
2022-12-17T12:22:35.822Z,101209.00
2022-12-17T12:25:27.782Z,101210.34
2022-12-17T12:28:19.093Z,101212.16
2022-12-17T12:31:10.280Z,101212.97
2022-12-17T12:34:01.373Z,101206.06
2022-12-17T12:36:47.201Z,101207.19
2022-12-17T12:39:37.785Z,101204.88
2022-12-17T12:42:28.455Z,101205.69
2022-12-17T12:45:18.330Z,101211.59
2022-12-17T12:48:07.732Z,101208.16
2022-12-17T12:51:00.293Z,101207.63
2022-12-17T12:53:45.702Z,101204.66
2022-12-17T12:56:45.310Z,101206.56
2022-12-17T12:59:31.379Z,101208.25
2022-12-17T13:02:17.052Z,101206.50
2022-12-17T13:05:02.905Z,101197.75
2022-12-17T13:07:41.458Z,101200.25
2022-12-17T13:10:26.691Z,101203.06
2022-12-17T13:12:57.559Z,101199.59
2022-12-17T13:15:35.946Z,101194.38
2022-12-17T13:21:00.175Z,101201.97
2022-12-17T13:23:31.456Z,101200.44
2022-12-17T13:26:14.900Z,101198.63
2022-12-17T13:28:47.617Z,101196.00
2022-12-17T13:31:28.712Z,101193.66
2022-12-17T13:34:05.118Z,101186.66
2022-12-17T13:36:53.634Z,101194.91
2022-12-17T13:39:45.864Z,101197.97
2022-12-17T13:42:21.892Z,101203.69
2022-12-17T13:44:50.078Z,101193.94
2022-12-17T13:47:25.525Z,101197.47
2022-12-17T13:50:31.748Z,101189.66
2022-12-17T13:52:42.869Z,101189.38
2022-12-17T13:58:26.736Z,101186.31
2022-12-17T14:01:06.305Z,101199.56
2022-12-17T14:04:04.420Z,101196.94
2022-12-17T14:06:23.698Z,101193.38
2022-12-17T14:08:52.851Z,101192.50
2022-12-17T14:11:37.933Z,101200.25
2022-12-17T14:14:13.161Z,101200.34
2022-12-17T14:16:46.078Z,101199.91
2022-12-17T14:19:18.221Z,101206.81
2022-12-17T14:21:47.668Z,101203.78
2022-12-17T14:24:19.007Z,101208.72
2022-12-17T14:26:51.978Z,101208.38
2022-12-17T14:29:34.086Z,101199.50
2022-12-17T14:32:06.036Z,101201.44
2022-12-17T14:34:42.056Z,101196.69
2022-12-17T14:37:17.723Z,101201.53
2022-12-17T14:39:47.247Z,101203.22
2022-12-17T14:42:29.228Z,101195.63
2022-12-17T14:48:07.054Z,101212.66
2022-12-17T14:50:35.977Z,101213.25
2022-12-17T14:53:04.813Z,101215.78
2022-12-17T14:55:37.601Z,101219.03
2022-12-17T14:58:19.092Z,101220.03
2022-12-17T15:00:49.136Z,101218.44
2022-12-17T15:03:22.013Z,101224.22
2022-12-17T15:05:52.943Z,101230.78
2022-12-17T15:08:21.390Z,101229.56
2022-12-17T15:10:49.768Z,101223.16
2022-12-17T15:13:18.069Z,101221.63
2022-12-17T15:15:46.131Z,101227.53
2022-12-17T15:18:14.785Z,101231.41
2022-12-17T15:20:44.830Z,101239.13
2022-12-17T15:23:16.974Z,101232.38
2022-12-17T15:25:47.029Z,101240.38
2022-12-17T15:28:15.668Z,101239.13
2022-12-17T15:30:43.631Z,101249.25
2022-12-17T15:33:11.487Z,101251.69
2022-12-17T15:35:39.491Z,101256.69
2022-12-17T15:38:09.193Z,101263.50
2022-12-17T15:40:37.797Z,101253.09
2022-12-17T15:43:13.738Z,101255.44
2022-12-17T15:45:42.478Z,101256.13
2022-12-17T15:48:10.161Z,101251.03
2022-12-17T15:50:38.254Z,101251.78
2022-12-17T15:53:06.336Z,101241.66
2022-12-17T15:55:35.577Z,101247.47
2022-12-17T15:58:03.609Z,101247.34
2022-12-17T16:00:31.296Z,101249.03
2022-12-17T16:02:59.355Z,101252.50
2022-12-17T16:05:27.081Z,101247.06
2022-12-17T16:07:59.143Z,101250.66
2022-12-17T16:10:27.215Z,101255.56
2022-12-17T16:12:56.631Z,101267.72
2022-12-17T16:15:24.815Z,101262.16
2022-12-17T16:17:52.982Z,101268.22
2022-12-17T16:20:20.887Z,101264.00
2022-12-17T16:22:48.941Z,101272.06
2022-12-17T16:25:17.132Z,101281.66
2022-12-17T16:27:44.900Z,101279.16
2022-12-17T16:30:18.089Z,101277.69
2022-12-17T16:32:45.866Z,101277.78
2022-12-17T16:35:14.182Z,101271.97
2022-12-17T16:37:43.545Z,101276.06
2022-12-17T16:40:13.022Z,101280.47
2022-12-17T16:42:42.045Z,101281.19
2022-12-17T16:45:10.984Z,101287.69
2022-12-17T16:47:41.025Z,101285.25
2022-12-17T16:50:09.070Z,101289.75
2022-12-17T16:52:36.911Z,101286.84
2022-12-17T16:55:05.055Z,101294.47
2022-12-17T16:57:35.659Z,101297.63
2022-12-17T17:00:05.790Z,101296.53
2022-12-17T17:02:33.796Z,101288.13
2022-12-17T17:05:06.449Z,101298.75
2022-12-17T17:07:34.194Z,101303.25
2022-12-17T17:10:07.869Z,101306.97
2022-12-17T17:12:35.982Z,101311.38
2022-12-17T17:15:04.508Z,101313.03
2022-12-17T17:17:55.599Z,101313.63
2022-12-17T17:20:22.197Z,101308.53
2022-12-17T17:22:50.222Z,101308.69
2022-12-17T17:25:18.230Z,101307.28
2022-12-17T17:27:46.211Z,101308.97
2022-12-17T17:30:14.796Z,101294.38
2022-12-17T17:32:43.110Z,101294.47
2022-12-17T17:35:11.669Z,101294.03
2022-12-17T17:37:41.224Z,101302.00
2022-12-17T17:40:10.058Z,101299.09
2022-12-17T17:42:37.828Z,101299.53
2022-12-17T17:45:06.477Z,101295.00
2022-12-17T17:47:34.456Z,101288.50
2022-12-17T17:50:02.189Z,101295.53
2022-12-17T17:52:30.011Z,101305.81
2022-12-17T18:04:07.586Z,101312.56
2022-12-17T18:13:19.481Z,101334.78
2022-12-17T18:28:13.274Z,101330.81
2022-12-17T18:34:19.508Z,101328.44
2022-12-17T18:46:49.640Z,101337.13
2022-12-17T18:58:14.320Z,101351.25
2022-12-17T19:42:37.388Z,101361.38
2022-12-17T19:53:20.914Z,101349.78
2022-12-17T20:25:19.678Z,101385.28
2022-12-17T20:44:11.978Z,101409.28
2022-12-17T20:47:06.504Z,101410.78
2022-12-17T20:49:34.549Z,101405.78
2022-12-17T20:52:02.257Z,101397.59
2022-12-17T20:54:58.442Z,101398.94
2022-12-17T20:57:49.284Z,101404.03
2022-12-17T21:17:31.340Z,101390.81
2022-12-17T21:54:18.965Z,101419.28
2022-12-17T21:56:48.043Z,101429.38
2022-12-17T22:02:03.513Z,101435.66
2022-12-17T22:14:07.257Z,101427.72
2022-12-17T22:16:51.972Z,101423.97
2022-12-17T22:31:24.559Z,101417.19
2022-12-17T22:33:53.635Z,101405.63
2022-12-17T22:44:48.773Z,101414.47
2022-12-17T22:48:24.152Z,101415.19
2022-12-17T22:53:42.564Z,101428.50
2022-12-17T22:59:28.257Z,101415.94
2022-12-17T23:05:04.843Z,101425.78
2022-12-17T23:07:43.097Z,101416.72
2022-12-17T23:10:15.044Z,101418.22
2022-12-17T23:12:54.763Z,101427.28
2022-12-17T23:15:25.637Z,101425.75
2022-12-17T23:18:23.052Z,101422.47
2022-12-17T23:20:52.144Z,101425.63
2022-12-17T23:26:22.798Z,101424.00
2022-12-17T23:29:01.877Z,101418.31
2022-12-17T23:31:48.620Z,101414.31
2022-12-17T23:34:30.381Z,101415.25
2022-12-17T23:39:44.081Z,101411.44
2022-12-17T23:45:16.353Z,101419.25
2022-12-17T23:48:14.063Z,101432.75
2022-12-17T23:51:11.486Z,101432.50
2022-12-17T23:53:51.344Z,101422.13
